Time;durP1;ratioP1;P1;durP2;ratioP2;P2;SDS_P1;SDS_P2;PMS_P1;PMS_P2;Temp;Humidity;BMP_temperature;BMP_pressure;BME280_temperature;BME280_humidity;BME280_pressure;Samples;Min_cycle;Max_cycle;Signal;HPM_P1;HPM_P2
2022/08/29 00:01:23;;;;;;;;;1.67;1.67;;;;;22.98;37.71;101230.72;5100419;27;46995;-72
2022/08/29 00:03:48;;;;;;;;;2.00;1.00;;;;;23.06;37.93;101242.38;5117057;27;45323;-74
2022/08/29 00:06:14;;;;;;;;;1.33;1.00;;;;;22.98;37.94;101228.91;5109179;27;45410;-73
2022/08/29 00:08:39;;;;;;;;;3.00;1.00;;;;;23.05;37.84;101234.22;5112147;27;45193;-73
2022/08/29 00:11:05;;;;;;;;;2.33;1.33;;;;;22.94;37.71;101209.91;5119043;27;46371;-75
2022/08/29 00:13:31;;;;;;;;;1.00;1.00;;;;;22.66;37.96;101172.25;5115713;27;45356;-74
2022/08/29 00:15:56;;;;;;;;;3.00;3.00;;;;;22.89;38.04;101212.72;5103529;27;45367;-75
2022/08/29 00:18:22;;;;;;;;;2.00;2.00;;;;;22.78;37.82;101192.91;5101225;27;46878;-73
2022/08/29 00:20:47;;;;;;;;;1.00;1.00;;;;;22.74;37.85;101191.19;5101545;27;45447;-73
2022/08/29 00:23:12;;;;;;;;;23.00;16.50;;;;;23.07;38.03;101243.34;5095071;27;45385;-71
2022/08/29 00:25:38;;;;;;;;;2.67;2.67;;;;;22.88;37.76;101218.19;5117093;27;45392;-75
2022/08/29 00:28:04;;;;;;;;;2.00;2.00;;;;;23.03;37.91;101244.28;5124555;27;45135;-74
2022/08/29 00:30:31;;;;;;;;;2.00;2.00;;;;;22.87;37.82;101220.03;5118902;27;45304;-73
2022/08/29 00:32:57;;;;;;;;;1.00;1.00;;;;;22.62;38.11;101181.41;5119338;27;45278;-73
2022/08/29 00:35:27;;;;;;;;;1.00;1.00;;;;;22.89;38.11;101231.78;5120439;27;45432;-73
2022/08/29 00:37:53;;;;;;;;;0.00;0.00;;;;;22.97;37.88;101242.56;5116549;27;45144;-74
2022/08/29 00:40:25;;;;;;;;;1.00;1.00;;;;;22.96;38.07;101233.47;5118758;27;45357;-73
2022/08/29 00:42:51;;;;;;;;;0.00;0.00;;;;;22.77;38.40;101207.50;5118351;27;45007;-73
2022/08/29 00:45:17;;;;;;;;;1.67;0.00;;;;;22.80;38.24;101238.28;5111796;27;45068;-74
2022/08/29 00:47:48;;;;;;;;;2.00;2.00;;;;;22.84;38.25;101249.16;5115829;27;45236;-72
2022/08/29 00:50:23;;;;;;;;;1.33;0.00;;;;;22.79;38.51;101241.03;5122068;27;45334;-74
2022/08/29 00:52:49;;;;;;;;;1.00;1.00;;;;;22.77;38.53;101243.78;5128695;27;44940;-73
2022/08/29 00:55:21;;;;;;;;;0.00;0.00;;;;;22.69;38.51;101229.41;5116727;27;45172;-72
2022/08/29 00:57:50;;;;;;;;;2.33;2.33;;;;;22.78;38.35;101239.22;5116654;27;45293;-72
2022/08/29 01:00:16;;;;;;;;;0.67;0.67;;;;;22.69;38.38;101228.50;5112227;27;45298;-74
2022/08/29 01:02:42;;;;;;;;;1.00;1.00;;;;;22.78;38.38;101251.00;5110510;27;45307;-73
2022/08/29 01:05:11;;;;;;;;;2.67;1.00;;;;;22.66;38.52;101228.56;5117972;27;45243;-74
2022/08/29 01:07:37;;;;;;;;;0.67;0.67;;;;;22.73;38.49;101244.75;5128004;27;45118;-72
2022/08/29 01:10:04;;;;;;;;;1.00;1.00;;;;;22.59;38.41;101217.75;5113986;27;45875;-72
2022/08/29 01:12:31;;;;;;;;;1.00;1.00;;;;;22.76;38.35;101246.53;5105970;27;45615;-72
2022/08/29 01:15:04;;;;;;;;;1.00;1.00;;;;;22.76;38.41;101238.38;5116398;27;45009;-73
2022/08/29 01:17:36;;;;;;;;;1.00;1.00;;;;;22.62;38.55;101208.63;5118480;27;46195;-74
2022/08/29 01:20:21;;;;;;;;;2.00;1.00;;;;;22.75;38.40;101233.81;5119978;27;47779;-74
2022/08/29 01:23:12;;;;;;;;;1.00;1.00;;;;;22.72;38.48;101234.78;5117095;27;45232;-71
2022/08/29 01:25:43;;;;;;;;;1.00;1.00;;;;;22.72;38.47;101239.31;5108593;27;45504;-73
2022/08/29 01:28:18;;;;;;;;;2.00;0.33;;;;;22.67;38.43;101236.69;5109901;27;45524;-73
2022/08/29 01:31:13;;;;;;;;;0.00;0.00;;;;;22.65;38.54;101230.34;5117840;27;45245;-73
2022/08/29 01:33:48;;;;;;;;;0.67;0.67;;;;;22.60;38.92;101241.34;5110182;27;45251;-74
2022/08/29 01:36:21;;;;;;;;;2.00;1.00;;;;;22.49;38.66;101226.06;5122430;27;45390;-74
2022/08/29 01:38:47;;;;;;;;;1.00;1.00;;;;;22.29;38.80;101197.34;5123266;27;45008;-72
2022/08/29 01:41:13;;;;;;;;;3.00;1.33;;;;;22.44;39.03;101242.50;5126332;27;45413;-73
2022/08/29 01:43:44;;;;;;;;;0.33;0.00;;;;;22.25;39.09;101220.03;5124706;27;44975;-73
2022/08/29 01:46:13;;;;;;;;;2.00;0.67;;;;;22.33;39.26;101247.19;5124716;27;45303;-73
2022/08/29 01:48:41;;;;;;;;;0.00;0.00;;;;;22.34;39.05;101240.81;5120515;27;45130;-73
2022/08/29 01:51:07;;;;;;;;;1.33;0.00;;;;;22.12;39.27;101202.09;5118681;27;45164;-73
2022/08/29 01:53:33;;;;;;;;;0.00;0.00;;;;;22.14;39.29;101203.88;5121858;27;45027;-74
2022/08/29 01:56:06;;;;;;;;;3.00;1.00;;;;;22.36;39.22;101239.00;5121180;27;45263;-73
2022/08/29 01:58:32;;;;;;;;;1.00;1.00;;;;;22.13;39.12;101193.03;5120395;27;45114;-72
2022/08/29 02:00:57;;;;;;;;;2.00;0.67;;;;;22.36;39.05;101230.81;5117623;27;45039;-73
2022/08/29 02:03:24;;;;;;;;;0.00;0.00;;;;;22.14;39.17;101203.88;5122691;27;45035;-72
2022/08/29 02:05:49;;;;;;;;;2.00;0.00;;;;;22.17;39.35;101216.53;5109184;27;45190;-72
2022/08/29 02:08:15;;;;;;;;;1.33;0.00;;;;;22.30;39.38;101237.25;5127130;27;45107;-72
2022/08/29 02:10:40;;;;;;;;;1.00;1.00;;;;;22.14;39.32;101206.59;5119792;27;47857;-72
2022/08/29 02:13:05;;;;;;;;;1.67;1.67;;;;;21.98;39.27;101181.41;5117256;27;53929;-73
2022/08/29 02:15:31;;;;;;;;;1.67;0.33;;;;;22.19;39.22;101214.69;5117789;27;45552;-74
2022/08/29 02:17:56;;;;;;;;;1.33;1.00;;;;;22.26;39.50;101235.47;5116482;27;45235;-73
2022/08/29 02:20:21;;;;;;;;;0.00;0.00;;;;;21.98;39.35;101185.97;5121598;27;62284;-73
2022/08/29 02:22:47;;;;;;;;;0.00;0.00;;;;;22.04;39.51;101207.63;5126759;27;46997;-72
2022/08/29 02:27:57;;;;;;;;;1.33;1.33;;;;;22.20;39.47;101236.44;5111777;27;44907;-73
2022/08/29 02:30:24;;;;;;;;;1.33;1.00;;;;;22.19;39.74;101234.66;5106873;27;46212;-73
2022/08/29 02:32:49;;;;;;;;;1.00;1.00;;;;;22.18;39.57;101232.84;5119717;27;44892;-72
2022/08/29 02:35:15;;;;;;;;;1.00;1.00;;;;;22.07;39.66;101208.47;5121858;27;45434;-72
2022/08/29 02:37:40;;;;;;;;;2.00;0.33;;;;;22.22;39.53;101228.25;5116682;27;45192;-72
2022/08/29 02:40:06;;;;;;;;;5.00;3.00;;;;;22.19;39.82;101223.75;5118209;27;56412;-73
2022/08/29 02:42:32;;;;;;;;;2.67;1.00;;;;;22.14;39.94;101227.47;5118099;27;45440;-75
2022/08/29 02:44:57;;;;;;;;;2.00;2.00;;;;;22.12;39.89;101230.19;5108616;27;45408;-74
2022/08/29 02:47:24;;;;;;;;;4.00;1.67;;;;;22.08;40.03;101228.47;5127886;27;45363;-73
2022/08/29 02:49:49;;;;;;;;;2.00;0.00;;;;;21.88;40.12;101199.69;5115563;27;47653;-74
2022/08/29 02:52:14;;;;;;;;;2.33;0.67;;;;;21.97;40.20;101227.69;5117648;27;45396;-72
2022/08/29 02:54:40;;;;;;;;;0.00;0.00;;;;;21.96;40.18;101226.81;5107250;27;45458;-74
2022/08/29 02:57:05;;;;;;;;;0.00;0.00;;;;;21.87;40.27;101210.59;5105059;27;45347;-74
2022/08/29 02:59:30;;;;;;;;;1.00;1.00;;;;;21.86;40.27;101212.41;5110658;27;46029;-72
2022/08/29 03:01:56;;;;;;;;;0.67;0.67;;;;;21.79;40.43;101196.19;5102910;27;45331;-74
2022/08/29 03:04:21;;;;;;;;;0.33;0.33;;;;;21.80;40.37;101207.03;5111290;27;45431;-74
2022/08/29 03:06:46;;;;;;;;;1.67;1.67;;;;;21.70;40.47;101191.78;5097677;27;45614;-73
2022/08/29 03:09:12;;;;;;;;;1.00;1.00;;;;;21.90;40.50;101219.59;5111681;27;46246;-72
2022/08/29 03:11:37;;;;;;;;;1.00;0.00;;;;;21.95;40.43;101221.38;5115670;27;45358;-72
2022/08/29 03:14:02;;;;;;;;;1.00;1.00;;;;;21.85;40.57;101207.00;5117359;27;45439;-72
2022/08/29 03:16:28;;;;;;;;;0.00;0.00;;;;;21.77;40.55;101188.03;5118779;27;45294;-72
2022/08/29 03:18:54;;;;;;;;;4.33;3.33;;;;;21.52;40.49;101133.09;5112550;27;46184;-74
2022/08/29 03:21:21;;;;;;;;;2.00;2.00;;;;;21.99;40.46;101215.88;5099635;27;46578;-72
2022/08/29 03:23:48;;;;;;;;;1.33;1.00;;;;;21.99;40.39;101221.31;5110661;27;45383;-73
2022/08/29 03:26:14;;;;;;;;;3.33;1.33;;;;;21.98;40.44;101218.63;5103991;27;45585;-74
2022/08/29 03:28:40;;;;;;;;;0.00;0.00;;;;;21.75;40.53;101181.72;5104785;27;45309;-74
2022/08/29 03:31:05;;;;;;;;;2.00;0.00;;;;;21.67;40.46;101173.66;5102659;27;45288;-73
2022/08/29 03:33:30;;;;;;;;;3.67;1.00;;;;;21.75;40.50;101189.88;5103536;27;45341;-72
2022/08/29 03:35:56;;;;;;;;;2.33;1.00;;;;;21.85;40.66;101210.59;5115605;27;45263;-71
2022/08/29 03:38:21;;;;;;;;;1.33;1.33;;;;;21.85;40.84;101205.16;5110515;27;56478;-76
2022/08/29 03:40:47;;;;;;;;;4.00;2.00;;;;;21.78;40.94;101208.91;5118295;27;45180;-73
2022/08/29 03:43:12;;;;;;;;;1.00;1.00;;;;;21.51;40.86;101172.97;5118032;27;45140;-73
2022/08/29 03:45:37;;;;;;;;;4.00;0.33;;;;;21.41;41.16;101162.19;5111405;27;44971;-73
2022/08/29 03:48:03;;;;;;;;;1.00;1.00;;;;;21.40;41.06;101164.00;5110958;27;45699;-73
2022/08/29 03:50:28;;;;;;;;;0.33;0.00;;;;;21.56;41.28;101194.66;5114633;27;45424;-72
2022/08/29 03:52:54;;;;;;;;;2.00;0.33;;;;;21.59;41.42;101199.16;5119225;27;46580;-73
2022/08/29 03:55:19;;;;;;;;;2.67;2.67;;;;;21.33;41.16;101157.75;5116355;27;44934;-73
2022/08/29 03:57:45;;;;;;;;;2.00;2.00;;;;;21.56;41.23;101193.75;5124522;27;45560;-74
2022/08/29 04:00:16;;;;;;;;;3.00;1.00;;;;;21.32;41.20;101153.22;5117684;27;45181;-72
2022/08/29 04:02:44;;;;;;;;;2.00;2.00;;;;;21.08;41.21;101113.63;5126176;27;45191;-73
2022/08/29 04:05:11;;;;;;;;;1.00;1.00;;;;;21.44;41.25;101178.47;5118948;27;45468;-72
2022/08/29 04:07:50;;;;;;;;;2.67;0.33;;;;;21.52;41.30;101207.38;5123311;27;45132;-73
2022/08/29 04:10:22;;;;;;;;;1.00;1.00;;;;;21.50;41.14;101200.19;5111519;27;45465;-73
2022/08/29 04:12:48;;;;;;;;;1.67;1.67;;;;;21.44;41.43;101202.94;5117688;27;45100;-72
2022/08/29 04:15:13;;;;;;;;;0.33;0.33;;;;;21.54;41.48;101218.25;5120435;27;45102;-72
2022/08/29 04:17:39;;;;;;;;;0.67;0.67;;;;;21.47;41.53;101211.03;5120373;27;46107;-72
2022/08/29 04:20:07;;;;;;;;;1.00;1.00;;;;;21.50;41.51;101213.78;5119894;27;45138;-72
2022/08/29 04:22:38;;;;;;;;;1.00;1.00;;;;;21.46;41.43;101201.06;5116496;27;44967;-72
2022/08/29 04:25:07;;;;;;;;;1.00;1.00;;;;;21.45;41.53;101199.25;5119760;27;45117;-73
2022/08/29 04:27:35;;;;;;;;;0.33;0.33;;;;;21.49;41.18;101210.13;5119217;27;46140;-73
2022/08/29 04:30:03;;;;;;;;;1.00;0.00;;;;;21.46;41.39;101210.13;5115484;27;45269;-74
2022/08/29 04:32:29;;;;;;;;;3.00;1.00;;;;;21.13;41.64;101149.78;5116303;27;45196;-72
2022/08/29 04:34:56;;;;;;;;;1.00;1.00;;;;;21.47;41.51;101202.88;5118772;27;45433;-73
2022/08/29 04:37:22;;;;;;;;;0.33;0.33;;;;;21.47;41.48;101209.25;5122027;27;46691;-72
2022/08/29 04:39:47;;;;;;;;;1.00;1.00;;;;;21.49;41.48;101209.25;5118114;27;45383;-73
2022/08/29 04:42:13;;;;;;;;;1.00;1.00;;;;;21.48;41.39;101216.50;5118880;27;54731;-74
2022/08/29 04:44:38;;;;;;;;;3.00;2.00;;;;;21.40;41.46;101199.34;5112895;27;45332;-74
2022/08/29 04:47:04;;;;;;;;;1.00;1.00;;;;;21.32;41.61;101195.81;5118995;27;46370;-74
2022/08/29 04:49:29;;;;;;;;;3.33;3.33;;;;;21.16;41.45;101168.78;5113430;27;45303;-74
2022/08/29 04:51:55;;;;;;;;;2.00;2.00;;;;;21.43;41.68;101221.06;5118378;27;45178;-74
2022/08/29 04:54:20;;;;;;;;;5.00;1.00;;;;;21.43;42.43;101223.78;5119755;27;44987;-73
2022/08/29 04:56:45;;;;;;;;;3.00;1.00;;;;;21.14;41.89;101181.50;5113513;27;45730;-72
2022/08/29 04:59:11;;;;;;;;;2.33;1.00;;;;;21.33;41.77;101220.25;5125156;27;45122;-72
2022/08/29 05:01:37;;;;;;;;;3.00;3.00;;;;;21.39;42.47;101219.28;5124171;27;45047;-73
2022/08/29 05:04:02;;;;;;;;;0.67;0.67;;;;;21.40;42.27;101231.97;5125284;27;45202;-73
2022/08/29 05:06:27;;;;;;;;;1.33;1.33;;;;;21.40;41.83;101229.25;5121498;27;45315;-72
2022/08/29 05:08:53;;;;;;;;;1.00;1.00;;;;;21.21;41.94;101200.47;5117789;27;45221;-72
2022/08/29 05:11:19;;;;;;;;;2.33;2.00;;;;;21.28;42.15;101216.69;5123547;27;45105;-73
2022/08/29 05:13:45;;;;;;;;;2.00;0.00;;;;;21.39;41.68;101246.47;5122174;27;45051;-72
2022/08/29 05:16:13;;;;;;;;;3.00;1.00;;;;;21.33;42.16;101235.66;5123753;27;46465;-73
2022/08/29 05:18:40;;;;;;;;;2.00;2.00;;;;;21.12;41.94;101204.19;5132260;27;45197;-73
2022/08/29 05:21:06;;;;;;;;;1.00;1.00;;;;;21.37;42.05;101242.88;5117132;27;45103;-74
2022/08/29 05:23:31;;;;;;;;;2.00;2.00;;;;;21.30;41.86;101235.66;5116963;27;45292;-74
2022/08/29 05:25:59;;;;;;;;;1.33;1.00;;;;;21.33;42.28;101243.78;5121782;27;45635;-74
2022/08/29 05:28:29;;;;;;;;;7.00;4.33;;;;;21.32;42.12;101242.91;5117559;27;45182;-73
2022/08/29 05:30:55;;;;;;;;;4.33;3.00;;;;;21.32;42.22;101250.16;5117941;27;45165;-72
2022/08/29 05:33:20;;;;;;;;;1.33;1.00;;;;;21.34;41.96;101251.03;5130884;27;45345;-72
2022/08/29 05:35:49;;;;;;;;;2.00;2.00;;;;;21.20;41.97;101231.25;5121501;27;45258;-72
2022/08/29 05:38:14;;;;;;;;;4.33;2.00;;;;;21.34;41.89;101259.19;5126640;27;45360;-74
2022/08/29 05:40:40;;;;;;;;;2.00;0.33;;;;;21.37;42.16;101263.72;5119074;27;45316;-74
2022/08/29 05:43:08;;;;;;;;;4.00;2.00;;;;;21.20;42.04;101243.03;5119989;27;45248;-75
2022/08/29 05:45:34;;;;;;;;;2.67;2.67;;;;;21.30;42.01;101251.97;5120910;27;46597;-74
2022/08/29 05:48:03;;;;;;;;;4.67;1.00;;;;;21.17;42.02;101237.63;5128612;27;45381;-74
2022/08/29 05:50:28;;;;;;;;;2.67;2.00;;;;;21.38;42.01;101271.81;5119375;27;45230;-73
2022/08/29 05:52:53;;;;;;;;;1.33;1.00;;;;;21.43;41.87;101278.16;5114082;27;45282;-72
2022/08/29 05:55:18;;;;;;;;;3.00;3.00;;;;;21.31;41.93;101248.34;5123376;27;53650;-73
2022/08/29 05:57:44;;;;;;;;;1.00;1.00;;;;;21.47;41.93;101279.00;5127872;27;45148;-74
2022/08/29 06:00:11;;;;;;;;;3.00;2.00;;;;;21.12;41.89;101221.38;5122333;27;44941;-74
2022/08/29 06:02:36;;;;;;;;;2.67;2.00;;;;;21.42;42.11;101267.28;5118647;27;44926;-72
2022/08/29 06:05:03;;;;;;;;;1.00;1.00;;;;;21.42;41.90;101278.16;5121255;27;45582;-71
2022/08/29 06:07:29;;;;;;;;;2.00;2.00;;;;;21.19;41.85;101241.22;5121607;27;44993;-74
2022/08/29 06:09:55;;;;;;;;;3.33;3.00;;;;;21.43;41.83;101269.06;5109818;27;45501;-74
2022/08/29 06:12:20;;;;;;;;;5.33;3.00;;;;;21.35;42.01;101251.03;5108426;27;45452;-74
2022/08/29 06:14:45;;;;;;;;;3.67;2.00;;;;;21.52;42.09;101269.91;5117196;27;45518;-74
2022/08/29 06:17:11;;;;;;;;;1.00;1.00;;;;;21.60;41.95;101286.16;5113089;27;45007;-74
2022/08/29 06:19:38;;;;;;;;;4.00;3.00;;;;;21.56;41.67;101272.59;5118756;27;45727;-73
2022/08/29 06:22:05;;;;;;;;;3.67;2.67;;;;;21.58;42.02;101274.41;5114804;27;45434;-72
2022/08/29 06:24:32;;;;;;;;;3.00;2.00;;;;;21.62;41.52;101287.03;5116406;27;46225;-74
2022/08/29 06:26:58;;;;;;;;;4.00;1.00;;;;;21.64;41.52;101289.72;5110809;27;45367;-76
2022/08/29 06:29:25;;;;;;;;;3.33;1.00;;;;;21.65;41.95;101288.84;5114124;27;45256;-75
2022/08/29 06:31:51;;;;;;;;;3.67;2.00;;;;;21.34;41.60;101248.31;5110645;27;45479;-73
2022/08/29 06:34:17;;;;;;;;;2.67;1.00;;;;;21.60;41.57;101294.31;5101381;27;45868;-74
2022/08/29 06:36:42;;;;;;;;;2.33;1.00;;;;;21.66;41.50;101304.22;5098120;27;45386;-73
2022/08/29 06:39:09;;;;;;;;;3.67;1.67;;;;;21.68;41.47;101300.56;5115668;27;45343;-73
2022/08/29 06:41:36;;;;;;;;;2.00;2.00;;;;;21.52;41.33;101271.75;5101194;27;45502;-74
2022/08/29 06:44:02;;;;;;;;;3.67;1.33;;;;;21.63;41.71;101287.91;5113400;27;47276;-75
2022/08/29 06:46:37;;;;;;;;;3.00;3.00;;;;;21.66;41.35;101299.69;5105617;27;45384;-75
2022/08/29 06:49:06;;;;;;;;;6.33;3.00;;;;;21.67;41.36;101296.03;5102867;27;45504;-73
2022/08/29 06:51:34;;;;;;;;;1.00;1.00;;;;;21.66;41.01;101296.97;5113003;27;45582;-76
2022/08/29 06:54:01;;;;;;;;;2.00;2.00;;;;;21.63;41.25;101296.09;5099954;27;46622;-75
2022/08/29 06:56:27;;;;;;;;;2.00;2.00;;;;;21.63;41.46;101298.78;5102986;27;45498;-75
2022/08/29 06:58:52;;;;;;;;;3.67;2.00;;;;;21.66;41.29;101301.50;5104651;27;45404;-75
2022/08/29 07:01:19;;;;;;;;;1.00;1.00;;;;;21.69;41.18;101296.91;5099796;27;45413;-73
2022/08/29 07:03:45;;;;;;;;;8.00;7.00;;;;;21.66;41.25;101288.81;5096850;27;45403;-76
2022/08/29 07:06:12;;;;;;;;;2.00;2.00;;;;;21.75;41.14;101300.50;5094949;27;45545;-75
2022/08/29 07:08:38;;;;;;;;;3.33;3.00;;;;;21.64;41.25;101285.19;5102323;27;45457;-75
2022/08/29 07:11:03;;;;;;;;;2.00;0.33;;;;;21.64;41.36;101285.19;5102044;27;45363;-75
2022/08/29 07:13:29;;;;;;;;;4.00;2.00;;;;;21.87;41.20;101309.41;5096852;27;45414;-75
2022/08/29 07:15:56;;;;;;;;;3.33;2.33;;;;;21.55;40.90;101239.09;5100213;27;45352;-74
2022/08/29 07:18:21;;;;;;;;;10.00;6.67;;;;;21.88;40.90;101297.63;5103298;27;45385;-77
2022/08/29 07:20:47;;;;;;;;;4.67;4.67;;;;;21.87;40.83;101276.75;5098435;27;45308;-74
2022/08/29 07:23:12;;;;;;;;;4.00;3.00;;;;;22.00;40.91;101302.00;5100142;27;46979;-74
2022/08/29 07:25:38;;;;;;;;;3.00;1.00;;;;;22.05;40.44;101301.97;5097928;27;45329;-73
2022/08/29 07:28:04;;;;;;;;;2.67;1.67;;;;;21.79;40.48;101258.75;5096664;27;49151;-74
2022/08/29 07:30:30;;;;;;;;;2.00;2.00;;;;;22.06;40.75;101303.78;5095574;27;45738;-75
2022/08/29 07:32:56;;;;;;;;;1.33;1.33;;;;;21.74;40.91;101242.47;5099813;27;45684;-75
2022/08/29 07:35:21;;;;;;;;;2.00;2.00;;;;;22.13;40.42;101304.59;5100753;27;45428;-75
2022/08/29 07:37:47;;;;;;;;;2.00;2.00;;;;;22.17;40.37;101300.91;5096722;27;45480;-75
2022/08/29 07:40:16;;;;;;;;;1.67;1.67;;;;;22.24;40.30;101297.16;5096288;27;45359;-74
2022/08/29 07:42:42;;;;;;;;;4.33;3.00;;;;;22.31;40.10;101307.09;5099805;27;45528;-75
2022/08/29 07:45:09;;;;;;;;;1.33;1.33;;;;;22.35;40.27;101299.78;5103715;27;45349;-73
2022/08/29 07:47:34;;;;;;;;;4.00;2.67;;;;;22.35;39.96;101291.63;5103986;27;45451;-75
2022/08/29 07:50:09;;;;;;;;;2.00;2.00;;;;;22.22;40.08;101266.34;5102617;27;45408;-75
2022/08/29 07:52:35;;;;;;;;;5.33;2.33;;;;;22.54;39.89;101303.19;5101526;27;46287;-75
2022/08/29 07:55:03;;;;;;;;;3.67;2.00;;;;;22.55;39.68;101304.94;5102425;27;45685;-75
2022/08/29 07:57:29;;;;;;;;;3.50;2.00;;;;;22.43;39.57;101276.97;5114209;27;45412;-73
2022/08/29 07:59:54;;;;;;;;;1.00;1.00;;;;;22.65;39.45;101309.34;5098418;27;45479;-75
2022/08/29 08:02:19;;;;;;;;;2.00;2.00;;;;;22.67;39.24;101303.88;5105257;27;61325;-72
2022/08/29 08:04:45;;;;;;;;;1.00;1.00;;;;;22.81;39.20;101320.91;5097125;27;60200;-75
2022/08/29 08:07:11;;;;;;;;;2.33;2.00;;;;;22.73;39.13;101299.22;5095776;27;45458;-75
2022/08/29 08:09:37;;;;;;;;;3.33;3.00;;;;;22.69;39.13;101282.97;5098180;27;45392;-76
2022/08/29 08:12:04;;;;;;;;;2.00;2.00;;;;;22.94;39.18;101308.00;5104546;27;45549;-74
2022/08/29 08:14:30;;;;;;;;;4.00;2.00;;;;;22.82;39.17;101273.69;5107723;27;45394;-74
2022/08/29 08:16:56;;;;;;;;;2.00;2.00;;;;;23.08;39.00;101303.28;5109604;27;45309;-74
2022/08/29 08:19:21;;;;;;;;;2.33;1.33;;;;;23.02;38.56;101273.34;5109480;27;45534;-73
2022/08/29 08:21:46;;;;;;;;;1.67;1.00;;;;;23.24;38.47;101297.56;5100227;27;48744;-75
2022/08/29 08:24:12;;;;;;;;;2.67;2.00;;;;;23.20;38.19;101274.91;5096690;27;45403;-73
2022/08/29 08:26:37;;;;;;;;;1.33;1.33;;;;;23.18;38.68;101265.81;5097482;27;45361;-74
2022/08/29 08:29:03;;;;;;;;;4.33;4.00;;;;;23.41;38.17;101286.34;5095619;27;45347;-74
2022/08/29 08:31:28;;;;;;;;;2.33;2.33;;;;;23.44;38.15;101286.28;5094864;27;45514;-74
2022/08/29 08:33:55;;;;;;;;;3.00;3.00;;;;;23.44;38.21;101280.81;5110428;27;45541;-73
2022/08/29 08:36:22;;;;;;;;;2.00;1.00;;;;;23.60;38.15;101292.38;5107515;27;45510;-74
2022/08/29 08:38:48;;;;;;;;;2.00;2.00;;;;;23.48;38.14;101239.84;5100519;27;45392;-74
2022/08/29 08:41:30;;;;;;;;;3.00;3.00;;;;;23.81;37.64;101271.91;5116397;27;46320;-74
2022/08/29 08:43:57;;;;;;;;;2.33;2.33;;;;;23.91;37.60;101282.66;5101177;27;45305;-76
2022/08/29 08:46:43;;;;;;;;;2.00;2.00;;;;;23.80;37.38;101248.31;5105232;27;45597;-75
2022/08/29 08:49:15;;;;;;;;;5.33;3.67;;;;;23.97;37.07;101275.28;5101130;27;45526;-75
2022/08/29 08:51:49;;;;;;;;;2.00;2.00;;;;;24.07;37.27;101294.16;5100387;27;45395;-75
2022/08/29 08:54:23;;;;;;;;;2.00;1.00;;;;;24.16;37.38;101294.91;5099120;27;45483;-74
2022/08/29 08:56:56;;;;;;;;;1.33;1.33;;;;;24.23;36.92;101289.25;5094618;27;45505;-74
2022/08/29 08:59:41;;;;;;;;;4.67;3.00;;;;;24.14;37.21;101248.53;5102692;27;45725;-74
2022/08/29 09:02:33;;;;;;;;;3.33;3.33;;;;;24.44;37.09;101290.63;5098958;27;46055;-74
2022/08/29 09:05:22;;;;;;;;;5.00;2.00;;;;;24.50;36.90;101286.88;5095221;27;45411;-74
2022/08/29 09:08:08;;;;;;;;;1.00;1.00;;;;;24.44;36.67;101276.09;5095411;27;45387;-68
2022/08/29 09:10:45;;;;;;;;;2.00;2.00;;;;;24.66;36.43;101298.34;5102418;27;45348;-71
2022/08/29 09:13:26;;;;;;;;;3.00;3.00;;;;;24.74;36.57;101295.47;5102852;27;45432;-68
2022/08/29 09:15:55;;;;;;;;;6.33;3.00;;;;;24.73;36.28;101283.63;5096059;27;45360;-72
2022/08/29 09:18:35;;;;;;;;;2.00;2.00;;;;;24.92;36.22;101286.81;5101580;27;45456;-68
2022/08/29 09:21:02;;;;;;;;;3.00;3.00;;;;;24.97;36.40;101286.69;5097330;27;45480;-70
2022/08/29 09:23:38;;;;;;;;;5.00;3.00;;;;;25.07;36.38;101290.97;5097883;27;46362;-69
2022/08/29 09:26:04;;;;;;;;;4.67;3.33;;;;;24.77;35.89;101222.50;5094981;27;45392;-69
2022/08/29 09:28:29;;;;;;;;;3.00;2.00;;;;;25.29;35.62;101287.72;5095478;27;45320;-68
2022/08/29 09:31:18;;;;;;;;;7.00;4.67;;;;;25.40;35.73;101284.72;5094145;27;45354;-70
2022/08/29 09:33:49;;;;;;;;;8.33;5.33;;;;;25.49;35.32;101285.38;5097980;27;45516;-68
2022/08/29 09:36:47;;;;;;;;;5.00;4.00;;;;;25.56;35.13;101280.63;5095733;27;45425;-70
2022/08/29 09:39:27;;;;;;;;;2.33;2.33;;;;;25.67;34.74;101288.53;5095211;27;45391;-71
2022/08/29 09:41:56;;;;;;;;;7.33;4.00;;;;;25.78;35.27;101289.13;5094190;27;45393;-69
2022/08/29 09:44:34;;;;;;;;;5.00;3.00;;;;;25.86;34.35;101284.34;5104158;27;45616;-69
2022/08/29 09:47:09;;;;;;;;;3.00;3.00;;;;;25.85;35.23;101277.03;5099822;27;45373;-69
2022/08/29 09:49:39;;;;;;;;;6.00;4.00;;;;;25.99;34.48;101281.28;5103714;27;45359;-71
2022/08/29 09:52:12;;;;;;;;;1.00;1.00;;;;;26.08;34.71;101275.53;5098749;27;45390;-68
2022/08/29 09:54:38;;;;;;;;;5.00;5.00;;;;;25.94;34.43;101254.88;5104052;27;46299;-69
2022/08/29 09:57:07;;;;;;;;;3.00;3.00;;;;;26.18;34.16;101270.66;5099702;27;45350;-69
2022/08/29 09:59:38;;;;;;;;;3.00;3.00;;;;;26.19;34.10;101275.22;5100946;27;45557;-68
2022/08/29 10:02:13;;;;;;;;;4.67;3.33;;;;;26.24;34.26;101265.91;5098053;27;45369;-69
2022/08/29 10:04:41;;;;;;;;;9.00;6.00;;;;;26.19;34.35;101245.09;5097153;27;46203;-68
2022/08/29 10:07:20;;;;;;;;;5.00;5.00;;;;;26.28;34.10;101240.22;5099117;27;45367;-70
2022/08/29 10:10:19;;;;;;;;;3.67;3.00;;;;;26.51;33.98;101265.09;5102253;27;45353;-71
2022/08/29 10:13:04;;;;;;;;;5.00;3.00;;;;;26.59;33.74;101265.75;5088672;27;45637;-71
2022/08/29 10:15:54;;;;;;;;;3.00;3.00;;;;;26.69;33.97;101263.63;5100440;27;46114;-69
2022/08/29 10:18:43;;;;;;;;;2.33;2.33;;;;;26.73;33.73;101260.75;5103766;27;45985;-69
2022/08/29 10:21:46;;;;;;;;;3.00;3.00;;;;;26.83;33.90;101264.09;5099696;27;45638;-72
2022/08/29 10:24:51;;;;;;;;;2.33;2.00;;;;;26.89;33.73;101258.38;5101162;27;45499;-65
2022/08/29 10:27:36;;;;;;;;;3.67;2.00;;;;;26.93;33.58;101251.84;5097456;27;45605;-67
2022/08/29 10:30:19;;;;;;;;;10.00;2.33;;;;;27.00;33.66;101260.75;5097059;27;45361;-65
2022/08/29 10:33:00;;;;;;;;;8.00;3.00;;;;;26.94;33.46;101234.47;5100424;27;45368;-65
2022/08/29 10:35:31;;;;;;;;;3.67;3.33;;;;;27.10;33.53;101262.22;5098447;27;45345;-64
2022/08/29 10:38:11;;;;;;;;;5.33;3.67;;;;;27.12;33.52;101253.97;5096902;27;45422;-65
2022/08/29 10:40:55;;;;;;;;;4.33;4.33;;;;;27.15;33.43;101253.84;5096752;27;45471;-66
2022/08/29 10:43:29;;;;;;;;;4.67;3.67;;;;;27.14;33.33;101254.78;5102889;27;45336;-66
2022/08/29 10:46:03;;;;;;;;;3.67;2.67;;;;;27.17;33.43;101252.88;5104784;27;45445;-65
2022/08/29 10:48:36;;;;;;;;;5.33;3.00;;;;;27.20;33.58;101251.84;5101856;27;46407;-64
2022/08/29 10:51:26;;;;;;;;;3.67;3.00;;;;;27.21;33.42;101248.16;5102963;27;45391;-66
2022/08/29 10:53:59;;;;;;;;;4.33;4.33;;;;;27.21;33.47;101245.41;5114020;27;45610;-65
2022/08/29 10:56:45;;;;;;;;;9.00;3.33;;;;;27.25;33.24;101241.59;5101778;27;45381;-65
2022/08/29 10:59:28;;;;;;;;;5.33;4.00;;;;;27.31;33.76;101238.69;5097856;27;45667;-64
2022/08/29 11:02:04;;;;;;;;;5.00;4.00;;;;;27.17;33.73;101214.47;5100700;27;45458;-65
2022/08/29 11:04:55;;;;;;;;;4.00;4.00;;;;;27.30;33.13;101223.16;5096404;27;45416;-63
2022/08/29 11:07:30;;;;;;;;;7.67;5.33;;;;;27.30;33.50;101223.16;5101363;27;45303;-63
2022/08/29 11:10:16;;;;;;;;;4.00;4.00;;;;;27.42;33.54;101235.53;5105811;27;45509;-65
2022/08/29 11:12:45;;;;;;;;;7.00;4.67;;;;;27.46;33.25;101236.34;5096457;27;45510;-64
2022/08/29 11:15:20;;;;;;;;;5.67;4.00;;;;;27.48;33.20;101234.44;5105188;27;45321;-69
2022/08/29 11:17:55;;;;;;;;;5.00;3.00;;;;;27.49;33.17;101236.25;5099808;27;45578;-64
2022/08/29 11:20:29;;;;;;;;;3.33;3.33;;;;;27.49;33.05;101230.75;5098613;27;45407;-64
2022/08/29 11:23:11;;;;;;;;;6.67;4.00;;;;;27.57;33.08;101234.13;5098300;27;45353;-65
2022/08/29 11:25:40;;;;;;;;;4.67;3.00;;;;;27.62;33.41;101231.16;5097020;27;45549;-65
2022/08/29 11:28:24;;;;;;;;;2.67;2.67;;;;;27.63;33.16;101225.63;5098224;27;45941;-67
2022/08/29 11:30:55;;;;;;;;;3.33;3.33;;;;;27.65;32.58;101231.06;5102189;27;46180;-65
2022/08/29 11:33:35;;;;;;;;;7.33;3.67;;;;;27.59;32.99;101215.72;5099556;27;45606;-63
2022/08/29 11:36:00;;;;;;;;;8.00;4.33;;;;;27.61;33.13;101226.66;5099197;27;45572;-65
2022/08/29 11:38:46;;;;;;;;;5.33;4.00;;;;;27.65;33.04;101215.47;5096758;27;45778;-65